Time;durP1;ratioP1;P1;durP2;ratioP2;P2;SDS_P1;SDS_P2;PMS_P1;PMS_P2;Temp;Humidity;BMP_temperature;BMP_pressure;BME280_temperature;BME280_humidity;BME280_pressure;Samples;Min_cycle;Max_cycle;Signal;HPM_P1;HPM_P2
2023/09/16 00:01:28;;;;;;;3.13;2.28;;;;;;;;;;5082229;28;20769;-72
2023/09/16 00:04:00;;;;;;;7.40;2.15;;;;;;;;;;5081631;28;20050;-71
2023/09/16 00:06:30;;;;;;;5.72;2.75;;;;;;;;;;5079235;28;20055;-72
2023/09/16 00:09:02;;;;;;;7.60;2.40;;;;;;;;;;5082393;28;20055;-73
2023/09/16 00:11:36;;;;;;;13.20;2.47;;;;;;;;;;5079384;28;20494;-72
2023/09/16 00:14:07;;;;;;;3.83;1.90;;;;;;;;;;5080522;28;20044;-73
2023/09/16 00:16:40;;;;;;;6.05;2.33;;;;;;;;;;5079920;28;20060;-73
2023/09/16 00:19:12;;;;;;;7.50;1.80;;;;;;;;;;5081463;28;20044;-73
2023/09/16 00:21:45;;;;;;;3.72;2.05;;;;;;;;;;5081720;28;20407;-73
2023/09/16 00:24:18;;;;;;;4.82;1.77;;;;;;;;;;5081192;28;20426;-73
2023/09/16 00:26:48;;;;;;;9.07;2.38;;;;;;;;;;5081108;28;20048;-73
2023/09/16 00:29:20;;;;;;;6.15;2.33;;;;;;;;;;5079946;28;20063;-74
2023/09/16 00:31:50;;;;;;;4.82;1.90;;;;;;;;;;5081274;28;20483;-73
2023/09/16 00:34:21;;;;;;;5.00;1.55;;;;;;;;;;5079599;28;20055;-73
2023/09/16 00:36:51;;;;;;;4.47;1.70;;;;;;;;;;5081588;28;20044;-73
2023/09/16 00:39:23;;;;;;;4.47;1.77;;;;;;;;;;5079361;28;20059;-73
2023/09/16 00:41:54;;;;;;;2.70;1.30;;;;;;;;;;5079272;28;20056;-72
2023/09/16 00:44:25;;;;;;;2.80;1.60;;;;;;;;;;5079986;28;20053;-73
2023/09/16 00:46:56;;;;;;;4.05;1.70;;;;;;;;;;5080207;28;20056;-72
2023/09/16 00:49:30;;;;;;;2.30;1.45;;;;;;;;;;5082515;28;20052;-73
2023/09/16 00:52:01;;;;;;;3.83;1.50;;;;;;;;;;5079442;28;20056;-73
2023/09/16 00:54:32;;;;;;;4.80;1.80;;;;;;;;;;5081037;28;20036;-73
2023/09/16 00:57:04;;;;;;;3.30;1.48;;;;;;;;;;5081204;28;20047;-73
2023/09/16 00:59:36;;;;;;;2.95;1.63;;;;;;;;;;5079637;28;20059;-72
2023/09/16 01:02:11;;;;;;;2.90;1.40;;;;;;;;;;5083733;28;20391;-74
2023/09/16 01:04:43;;;;;;;2.75;1.55;;;;;;;;;;5084852;28;20490;-72
2023/09/16 01:07:15;;;;;;;4.10;1.60;;;;;;;;;;5084266;28;20071;-73
2023/09/16 01:09:46;;;;;;;5.72;1.02;;;;;;;;;;5082213;28;20438;-72
2023/09/16 01:12:17;;;;;;;6.35;1.73;;;;;;;;;;5082501;28;20059;-72
2023/09/16 01:14:49;;;;;;;3.08;1.52;;;;;;;;;;5084430;28;20398;-72
2023/09/16 01:17:27;;;;;;;3.83;1.20;;;;;;;;;;5077983;28;20056;-73
2023/09/16 01:20:06;;;;;;;5.05;1.40;;;;;;;;;;5063847;28;20516;-73
2023/09/16 01:22:44;;;;;;;2.70;1.40;;;;;;;;;;5078978;28;20063;-73
2023/09/16 01:25:16;;;;;;;3.78;1.63;;;;;;;;;;5064947;28;20063;-73
2023/09/16 01:27:47;;;;;;;6.13;2.63;;;;;;;;;;5064412;28;20053;-73
2023/09/16 01:30:18;;;;;;;7.35;2.33;;;;;;;;;;5064462;28;20044;-74
2023/09/16 01:33:03;;;;;;;4.00;2.17;;;;;;;;;;5063676;28;20056;-72
2023/09/16 01:35:38;;;;;;;5.28;1.95;;;;;;;;;;5063023;28;20397;-72
2023/09/16 01:38:14;;;;;;;4.65;1.88;;;;;;;;;;5063391;28;20103;-71
2023/09/16 01:40:49;;;;;;;4.10;2.00;;;;;;;;;;5045237;28;20059;-73
2023/09/16 01:43:20;;;;;;;3.65;1.98;;;;;;;;;;5063180;28;20052;-72
2023/09/16 01:45:52;;;;;;;6.05;1.80;;;;;;;;;;5063065;28;20040;-72
2023/09/16 01:48:23;;;;;;;2.17;1.45;;;;;;;;;;5063859;28;20055;-73
2023/09/16 01:51:09;;;;;;;3.72;1.83;;;;;;;;;;5064025;28;20041;-73
2023/09/16 01:53:39;;;;;;;2.60;1.67;;;;;;;;;;5063603;28;20040;-72
2023/09/16 01:56:10;;;;;;;5.82;2.50;;;;;;;;;;5063904;28;20059;-72
2023/09/16 01:58:40;;;;;;;4.50;1.35;;;;;;;;;;5078861;28;20053;-73
2023/09/16 02:01:11;;;;;;;4.63;1.70;;;;;;;;;;5062565;28;21126;-73
2023/09/16 02:03:42;;;;;;;3.15;1.73;;;;;;;;;;5063922;28;20052;-73
2023/09/16 02:06:13;;;;;;;5.75;1.85;;;;;;;;;;5078631;28;20049;-73
2023/09/16 02:08:43;;;;;;;3.92;1.92;;;;;;;;;;5078351;28;20067;-73
2023/09/16 02:11:15;;;;;;;6.90;1.90;;;;;;;;;;5063249;28;20044;-74
2023/09/16 02:13:46;;;;;;;3.47;1.80;;;;;;;;;;5062111;28;20069;-73
2023/09/16 02:16:16;;;;;;;4.00;2.00;;;;;;;;;;5078332;28;20060;-73
2023/09/16 02:18:47;;;;;;;2.92;1.50;;;;;;;;;;5061455;28;20535;-72
2023/09/16 02:21:19;;;;;;;5.43;1.60;;;;;;;;;;5078055;28;20044;-73
2023/09/16 02:23:50;;;;;;;5.38;1.80;;;;;;;;;;5062499;28;20055;-72
2023/09/16 02:26:20;;;;;;;6.25;1.80;;;;;;;;;;5078471;28;20628;-72
2023/09/16 02:28:50;;;;;;;2.85;1.70;;;;;;;;;;5078766;28;20596;-73
2023/09/16 02:31:29;;;;;;;3.20;1.45;;;;;;;;;;5063489;28;20060;-73
2023/09/16 02:34:02;;;;;;;2.92;1.30;;;;;;;;;;5062981;28;20053;-74
2023/09/16 02:36:36;;;;;;;4.13;1.50;;;;;;;;;;5077240;28;20366;-73
2023/09/16 02:39:07;;;;;;;4.18;1.60;;;;;;;;;;5062736;28;20059;-73
2023/09/16 02:41:39;;;;;;;4.07;1.83;;;;;;;;;;5077539;28;20534;-72
2023/09/16 02:44:11;;;;;;;2.53;1.40;;;;;;;;;;5062486;28;20048;-73
2023/09/16 02:46:41;;;;;;;2.25;1.50;;;;;;;;;;5062650;28;20048;-73
2023/09/16 02:49:13;;;;;;;8.25;1.10;;;;;;;;;;5062466;28;20052;-72
2023/09/16 02:51:44;;;;;;;3.55;1.70;;;;;;;;;;5062422;28;20059;-72
2023/09/16 02:54:16;;;;;;;2.65;1.40;;;;;;;;;;5060652;28;20503;-73
2023/09/16 02:56:46;;;;;;;1.90;1.02;;;;;;;;;;5062591;28;20526;-73
2023/09/16 02:59:17;;;;;;;2.90;1.13;;;;;;;;;;5044675;28;20064;-73
2023/09/16 03:01:48;;;;;;;5.53;1.42;;;;;;;;;;5062852;28;20593;-76
2023/09/16 03:04:21;;;;;;;2.92;1.55;;;;;;;;;;5077777;28;20063;-73
2023/09/16 03:06:52;;;;;;;4.57;1.70;;;;;;;;;;5061059;28;20047;-73
2023/09/16 03:09:23;;;;;;;3.10;1.42;;;;;;;;;;5062817;28;20051;-72
2023/09/16 03:11:53;;;;;;;4.85;1.85;;;;;;;;;;5061118;28;20063;-73
2023/09/16 03:14:24;;;;;;;4.05;2.00;;;;;;;;;;5062041;28;20522;-72
2023/09/16 03:16:55;;;;;;;2.80;1.35;;;;;;;;;;5077174;28;20059;-72
2023/09/16 03:19:28;;;;;;;5.03;1.60;;;;;;;;;;5060236;28;20059;-77
2023/09/16 03:21:58;;;;;;;2.20;1.27;;;;;;;;;;5062365;28;20403;-72
2023/09/16 03:24:31;;;;;;;1.75;1.10;;;;;;;;;;5059408;28;20052;-73
2023/09/16 03:27:01;;;;;;;2.67;1.50;;;;;;;;;;5061030;28;20059;-73
2023/09/16 03:29:32;;;;;;;3.00;1.35;;;;;;;;;;5076509;28;20064;-72
2023/09/16 03:32:02;;;;;;;2.67;1.40;;;;;;;;;;5076920;28;20049;-72
2023/09/16 03:34:35;;;;;;;3.70;1.15;;;;;;;;;;5060388;28;20087;-72
2023/09/16 03:37:06;;;;;;;2.42;1.40;;;;;;;;;;5062326;28;20498;-72
2023/09/16 03:39:37;;;;;;;2.22;1.77;;;;;;;;;;5061755;28;20044;-72
2023/09/16 03:42:08;;;;;;;1.83;1.35;;;;;;;;;;5076300;28;20420;-72
2023/09/16 03:44:38;;;;;;;4.13;1.45;;;;;;;;;;5059937;28;20052;-73
2023/09/16 03:47:10;;;;;;;2.47;1.60;;;;;;;;;;5062489;28;20055;-73
2023/09/16 03:49:43;;;;;;;4.40;1.50;;;;;;;;;;5061051;28;20495;-73
2023/09/16 03:52:13;;;;;;;2.97;1.60;;;;;;;;;;5077478;28;20507;-72
2023/09/16 03:54:45;;;;;;;4.55;1.83;;;;;;;;;;5060127;28;20055;-74
2023/09/16 03:57:16;;;;;;;5.00;1.38;;;;;;;;;;5076888;28;20067;-73
2023/09/16 03:59:49;;;;;;;8.27;1.63;;;;;;;;;;5075793;28;20036;-72
2023/09/16 04:02:20;;;;;;;3.60;1.70;;;;;;;;;;5076600;28;20056;-72
2023/09/16 04:04:51;;;;;;;3.53;1.17;;;;;;;;;;5060250;28;20507;-73
2023/09/16 04:07:22;;;;;;;5.38;1.40;;;;;;;;;;5061685;28;20044;-72
2023/09/16 04:09:52;;;;;;;2.53;1.52;;;;;;;;;;5076254;28;20052;-73
2023/09/16 04:12:24;;;;;;;3.85;1.73;;;;;;;;;;5059668;28;20593;-72
2023/09/16 04:14:54;;;;;;;3.17;1.40;;;;;;;;;;5060149;28;20057;-72
2023/09/16 04:17:24;;;;;;;2.78;1.38;;;;;;;;;;5061257;28;20048;-72
2023/09/16 04:19:55;;;;;;;2.47;1.38;;;;;;;;;;5059823;28;20511;-73
2023/09/16 04:22:25;;;;;;;3.63;1.85;;;;;;;;;;5061611;28;20045;-73
2023/09/16 04:24:57;;;;;;;3.63;1.27;;;;;;;;;;5076873;28;20052;-72
2023/09/16 04:27:27;;;;;;;3.22;1.60;;;;;;;;;;5060010;28;20862;-73
2023/09/16 04:29:57;;;;;;;2.55;1.20;;;;;;;;;;5076165;28;20048;-73
2023/09/16 04:32:27;;;;;;;2.85;1.70;;;;;;;;;;5059363;28;20048;-72
2023/09/16 04:34:58;;;;;;;2.42;1.30;;;;;;;;;;5060908;28;20052;-72
2023/09/16 04:37:30;;;;;;;5.47;1.67;;;;;;;;;;5062693;28;20052;-72
2023/09/16 04:40:11;;;;;;;3.10;1.60;;;;;;;;;;5063344;28;20044;-72
2023/09/16 04:42:42;;;;;;;5.75;1.45;;;;;;;;;;5063187;28;20057;-72
2023/09/16 04:45:15;;;;;;;4.07;2.00;;;;;;;;;;5080224;28;20049;-73
2023/09/16 04:47:46;;;;;;;3.70;1.40;;;;;;;;;;5079728;28;20431;-73
2023/09/16 04:50:16;;;;;;;3.88;1.75;;;;;;;;;;5065461;28;20036;-73
2023/09/16 04:52:47;;;;;;;3.60;2.30;;;;;;;;;;5065649;28;20062;-73
2023/09/16 04:55:17;;;;;;;4.18;1.95;;;;;;;;;;5080085;28;20545;-73
2023/09/16 04:57:48;;;;;;;4.00;1.83;;;;;;;;;;5080293;28;20515;-73
2023/09/16 05:00:18;;;;;;;3.08;2.22;;;;;;;;;;5064656;28;20060;-72
2023/09/16 05:02:50;;;;;;;3.72;1.52;;;;;;;;;;5080351;28;20052;-72
2023/09/16 05:05:20;;;;;;;6.05;2.20;;;;;;;;;;5079668;28;20056;-72
2023/09/16 05:07:50;;;;;;;;;;;;;;;;;;5080436;28;20063;-73
2023/09/16 05:10:24;;;;;;;2.85;1.83;;;;;;;;;;5062300;28;19921;-73
2023/09/16 05:12:54;;;;;;;5.05;1.50;;;;;;;;;;5079143;28;20052;-73
2023/09/16 05:15:29;;;;;;;5.63;1.88;;;;;;;;;;5078967;28;20071;-73
2023/09/16 05:18:00;;;;;;;2.33;1.58;;;;;;;;;;5079072;28;20071;-73
2023/09/16 05:20:36;;;;;;;3.92;1.90;;;;;;;;;;5079171;28;20059;-72
2023/09/16 05:23:06;;;;;;;3.55;1.58;;;;;;;;;;5062974;28;20048;-73
2023/09/16 05:25:48;;;;;;;3.97;1.92;;;;;;;;;;5062600;28;20534;-72
2023/09/16 05:28:23;;;;;;;4.30;1.83;;;;;;;;;;5062585;28;20063;-73
2023/09/16 05:30:58;;;;;;;4.18;1.45;;;;;;;;;;5064101;28;20048;-72
2023/09/16 05:33:31;;;;;;;3.88;1.83;;;;;;;;;;5079283;28;20048;-73
2023/09/16 05:36:03;;;;;;;2.47;1.70;;;;;;;;;;5062896;28;20408;-72
2023/09/16 05:38:35;;;;;;;4.68;2.17;;;;;;;;;;5079593;28;20052;-72
2023/09/16 05:41:06;;;;;;;4.32;1.98;;;;;;;;;;5063023;28;20056;-72
2023/09/16 05:43:36;;;;;;;5.50;1.63;;;;;;;;;;5079551;28;20052;-72
2023/09/16 05:46:06;;;;;;;3.45;1.95;;;;;;;;;;5061681;28;20048;-72
2023/09/16 05:48:38;;;;;;;8.02;2.00;;;;;;;;;;5077881;28;20048;-73
2023/09/16 05:51:10;;;;;;;5.22;1.75;;;;;;;;;;5078941;28;20048;-72
2023/09/16 05:53:41;;;;;;;3.95;1.70;;;;;;;;;;5064076;28;20447;-71
2023/09/16 05:56:12;;;;;;;6.95;1.80;;;;;;;;;;5078451;28;20056;-72
2023/09/16 05:58:46;;;;;;;2.95;1.85;;;;;;;;;;5061844;28;20044;-72
2023/09/16 06:01:20;;;;;;;3.22;1.67;;;;;;;;;;5078900;28;20621;-72
2023/09/16 06:03:52;;;;;;;5.45;2.03;;;;;;;;;;5078622;28;20511;-72
2023/09/16 06:06:24;;;;;;;3.72;1.67;;;;;;;;;;5078663;28;20045;-73
2023/09/16 06:08:54;;;;;;;5.55;1.80;;;;;;;;;;5078354;28;20041;-71
2023/09/16 06:11:28;;;;;;;3.70;2.10;;;;;;;;;;5061731;28;20052;-73
2023/09/16 06:13:59;;;;;;;3.38;1.80;;;;;;;;;;5077816;28;20052;-72
2023/09/16 06:16:31;;;;;;;4.15;2.25;;;;;;;;;;5077982;28;20127;-73
2023/09/16 06:19:02;;;;;;;3.00;1.90;;;;;;;;;;5078769;28;20049;-72
2023/09/16 06:21:33;;;;;;;6.90;1.88;;;;;;;;;;5078678;28;20680;-72
2023/09/16 06:24:04;;;;;;;3.45;1.90;;;;;;;;;;5078863;28;20061;-72
2023/09/16 06:26:35;;;;;;;3.08;1.55;;;;;;;;;;5061051;28;20048;-73
2023/09/16 06:29:06;;;;;;;2.63;1.77;;;;;;;;;;5078000;28;20048;-73
2023/09/16 06:31:37;;;;;;;7.70;1.88;;;;;;;;;;5060985;28;20052;-73
2023/09/16 06:34:09;;;;;;;5.40;1.80;;;;;;;;;;5078174;28;20056;-72
2023/09/16 06:36:41;;;;;;;4.55;2.30;;;;;;;;;;5061764;28;20056;-72
2023/09/16 06:39:12;;;;;;;5.18;2.45;;;;;;;;;;5062822;28;20056;-73
2023/09/16 06:41:42;;;;;;;4.85;2.30;;;;;;;;;;5063011;28;20522;-73
2023/09/16 06:44:16;;;;;;;2.38;1.60;;;;;;;;;;5061576;28;20824;-73
2023/09/16 06:46:47;;;;;;;5.43;2.53;;;;;;;;;;5077279;28;20059;-72
2023/09/16 06:49:18;;;;;;;3.78;1.85;;;;;;;;;;5062770;28;20049;-72
2023/09/16 06:51:48;;;;;;;3.08;1.70;;;;;;;;;;5063370;28;20044;-72
2023/09/16 06:54:20;;;;;;;4.30;3.00;;;;;;;;;;5062488;28;20052;-72
2023/09/16 06:56:51;;;;;;;3.42;2.17;;;;;;;;;;5062688;28;20054;-72
2023/09/16 06:59:21;;;;;;;4.25;2.10;;;;;;;;;;5044484;28;20056;-72
2023/09/16 07:02:07;;;;;;;8.50;2.30;;;;;;;;;;5062760;28;20040;-72
2023/09/16 07:04:40;;;;;;;5.13;2.10;;;;;;;;;;5062311;28;20420;-72
2023/09/16 07:07:12;;;;;;;4.13;2.30;;;;;;;;;;5062391;28;20059;-72
2023/09/16 07:09:42;;;;;;;4.75;2.33;;;;;;;;;;5061951;28;20056;-72
2023/09/16 07:12:12;;;;;;;6.72;2.45;;;;;;;;;;5061535;28;20123;-72
2023/09/16 07:14:44;;;;;;;8.98;2.50;;;;;;;;;;5061965;28;20047;-72
2023/09/16 07:17:15;;;;;;;5.82;2.38;;;;;;;;;;5061723;28;20419;-72
2023/09/16 07:19:46;;;;;;;4.55;2.00;;;;;;;;;;5060214;28;20065;-72
2023/09/16 07:22:18;;;;;;;5.40;1.95;;;;;;;;;;5062295;28;20044;-72
2023/09/16 07:24:49;;;;;;;3.60;2.33;;;;;;;;;;5062099;28;20504;-72
2023/09/16 07:27:21;;;;;;;3.70;1.85;;;;;;;;;;5062254;28;20071;-72
2023/09/16 07:29:51;;;;;;;4.30;2.28;;;;;;;;;;5062008;28;20048;-72
2023/09/16 07:32:21;;;;;;;7.25;1.88;;;;;;;;;;5061415;28;20059;-71
2023/09/16 07:34:51;;;;;;;3.28;1.85;;;;;;;;;;5062035;28;20056;-72
2023/09/16 07:37:22;;;;;;;5.95;2.20;;;;;;;;;;5061739;28;20053;-71
2023/09/16 07:39:54;;;;;;;6.30;2.28;;;;;;;;;;5062187;28;20056;-72
2023/09/16 07:42:24;;;;;;;3.78;2.00;;;;;;;;;;5061729;28;20048;-72
2023/09/16 07:44:54;;;;;;;10.75;2.08;;;;;;;;;;5061591;28;20056;-72
2023/09/16 07:47:25;;;;;;;6.00;2.78;;;;;;;;;;5061969;28;20048;-72
2023/09/16 07:49:56;;;;;;;9.90;2.58;;;;;;;;;;5061880;28;20119;-72
2023/09/16 07:52:27;;;;;;;5.35;2.60;;;;;;;;;;5059949;28;20529;-72
2023/09/16 07:55:00;;;;;;;5.45;2.55;;;;;;;;;;5061590;28;20400;-73
2023/09/16 07:57:30;;;;;;;7.15;3.17;;;;;;;;;;5061583;28;20055;-73
2023/09/16 08:00:03;;;;;;;2.88;1.88;;;;;;;;;;5060339;28;20044;-72
2023/09/16 08:02:39;;;;;;;7.93;2.65;;;;;;;;;;5064596;28;20064;-72
2023/09/16 08:05:09;;;;;;;4.57;2.65;;;;;;;;;;5061225;28;20499;-72
2023/09/16 08:07:40;;;;;;;3.65;2.05;;;;;;;;;;5061547;28;20053;-72
2023/09/16 08:10:11;;;;;;;3.53;1.88;;;;;;;;;;5061746;28;20048;-71
2023/09/16 08:12:42;;;;;;;4.00;2.10;;;;;;;;;;5064992;28;20044;-72
2023/09/16 08:15:12;;;;;;;4.65;2.13;;;;;;;;;;5065307;28;20549;-72
2023/09/16 08:17:42;;;;;;;6.05;2.30;;;;;;;;;;5065963;28;20048;-72
2023/09/16 08:20:13;;;;;;;3.75;1.98;;;;;;;;;;5081595;28;20064;-72
2023/09/16 08:22:43;;;;;;;4.53;2.42;;;;;;;;;;5065436;28;20041;-72
2023/09/16 08:25:14;;;;;;;7.13;2.45;;;;;;;;;;5065414;28;20056;-72
2023/09/16 08:27:45;;;;;;;4.55;2.55;;;;;;;;;;5064915;28;20051;-72
2023/09/16 08:30:16;;;;;;;9.82;2.13;;;;;;;;;;5065608;28;20491;-72
2023/09/16 08:32:47;;;;;;;3.67;2.28;;;;;;;;;;5064950;28;20056;-72
2023/09/16 08:35:18;;;;;;;5.28;1.80;;;;;;;;;;5065729;28;20052;-72
2023/09/16 08:37:49;;;;;;;4.72;2.30;;;;;;;;;;5065098;28;20407;-72
2023/09/16 08:40:19;;;;;;;7.13;1.90;;;;;;;;;;5064954;28;20464;-72
2023/09/16 08:43:11;;;;;;;5.68;2.25;;;;;;;;;;5065466;28;20052;-72
2023/09/16 08:45:54;;;;;;;6.45;1.88;;;;;;;;;;5065495;28;20052;-72
2023/09/16 08:48:26;;;;;;;3.83;2.15;;;;;;;;;;5065158;28;20063;-72
2023/09/16 08:50:59;;;;;;;3.83;1.67;;;;;;;;;;5065032;28;20048;-72
2023/09/16 08:53:31;;;;;;;5.05;2.25;;;;;;;;;;5065537;28;20040;-72
2023/09/16 08:56:03;;;;;;;3.65;2.30;;;;;;;;;;5065150;28;20051;-73
2023/09/16 08:58:35;;;;;;;4.20;2.20;;;;;;;;;;5064458;28;20512;-72
2023/09/16 09:01:06;;;;;;;4.43;2.40;;;;;;;;;;5064318;28;20044;-73
2023/09/16 09:03:37;;;;;;;4.97;1.92;;;;;;;;;;5065126;28;20045;-72
2023/09/16 09:06:10;;;;;;;3.70;1.70;;;;;;;;;;5064272;28;20448;-73
2023/09/16 09:08:49;;;;;;;5.00;2.25;;;;;;;;;;5064732;28;20041;-73
2023/09/16 09:11:21;;;;;;;5.80;1.92;;;;;;;;;;5064753;28;20055;-72
2023/09/16 09:13:52;;;;;;;5.35;1.95;;;;;;;;;;5064300;28;20055;-72
2023/09/16 09:16:24;;;;;;;4.30;1.70;;;;;;;;;;5064146;28;20049;-73
2023/09/16 09:18:57;;;;;;;6.32;1.88;;;;;;;;;;5065056;28;20408;-73
2023/09/16 09:21:27;;;;;;;5.43;1.70;;;;;;;;;;5064875;28;20051;-73
2023/09/16 09:23:58;;;;;;;3.63;1.88;;;;;;;;;;5064324;28;20060;-74
2023/09/16 09:26:29;;;;;;;2.28;1.88;;;;;;;;;;5064526;28;20064;-72
2023/09/16 09:29:00;;;;;;;3.40;1.52;;;;;;;;;;5063811;28;20044;-71
2023/09/16 09:31:31;;;;;;;3.63;2.15;;;;;;;;;;5064228;28;20049;-75
2023/09/16 09:34:01;;;;;;;6.32;1.70;;;;;;;;;;5063392;28;20507;-72
2023/09/16 09:36:33;;;;;;;3.92;1.98;;;;;;;;;;5063929;28;20052;-72
2023/09/16 09:39:09;;;;;;;2.92;1.75;;;;;;;;;;5063671;28;20052;-72
2023/09/16 09:41:49;;;;;;;7.47;2.30;;;;;;;;;;5063811;28;20052;-73
2023/09/16 09:44:20;;;;;;;5.13;2.30;;;;;;;;;;5063834;28;20064;-72
2023/09/16 09:46:51;;;;;;;4.28;2.08;;;;;;;;;;5063764;28;20049;-73
2023/09/16 09:49:22;;;;;;;5.90;2.13;;;;;;;;;;5064394;28;20048;-72
2023/09/16 09:51:52;;;;;;;6.15;2.25;;;;;;;;;;5063450;28;20048;-72
2023/09/16 09:54:23;;;;;;;4.70;2.10;;;;;;;;;;5066287;28;20048;-72
2023/09/16 09:56:53;;;;;;;10.05;2.35;;;;;;;;;;5084052;28;20051;-74
2023/09/16 09:59:25;;;;;;;6.68;1.88;;;;;;;;;;5084340;28;20048;-72
2023/09/16 10:01:56;;;;;;;4.95;2.08;;;;;;;;;;5083641;28;20052;-73
2023/09/16 10:04:26;;;;;;;4.63;1.77;;;;;;;;;;5081329;28;20055;-71
2023/09/16 10:07:00;;;;;;;6.10;1.92;;;;;;;;;;5083835;28;20282;-71
2023/09/16 10:09:31;;;;;;;4.30;1.77;;;;;;;;;;5083786;28;20423;-73
2023/09/16 10:12:03;;;;;;;6.45;2.05;;;;;;;;;;5083556;28;21234;-71
2023/09/16 10:14:33;;;;;;;4.38;1.70;;;;;;;;;;5082220;28;20518;-72
2023/09/16 10:17:04;;;;;;;3.60;1.92;;;;;;;;;;5083561;28;20048;-71
2023/09/16 10:19:35;;;;;;;2.60;1.70;;;;;;;;;;5083213;28;20036;-72
2023/09/16 10:22:06;;;;;;;2.92;2.10;;;;;;;;;;5083024;28;20044;-72
2023/09/16 10:24:38;;;;;;;7.10;1.90;;;;;;;;;;5081310;28;20541;-72
2023/09/16 10:27:22;;;;;;;3.03;2.20;;;;;;;;;;5081748;28;20051;-74
2023/09/16 10:29:56;;;;;;;3.88;2.00;;;;;;;;;;5083524;28;20397;-74
2023/09/16 10:32:27;;;;;;;3.38;2.20;;;;;;;;;;5083525;28;20051;-74
2023/09/16 10:35:01;;;;;;;3.90;1.95;;;;;;;;;;5082322;28;20506;-73
2023/09/16 10:37:33;;;;;;;3.97;2.10;;;;;;;;;;5083126;28;20052;-73
2023/09/16 10:40:07;;;;;;;3.97;2.15;;;;;;;;;;5082666;28;20047;-72
2023/09/16 10:42:39;;;;;;;4.15;2.10;;;;;;;;;;5082552;28;20534;-74
2023/09/16 10:45:13;;;;;;;3.78;1.70;;;;;;;;;;5083234;28;20072;-73
2023/09/16 10:47:47;;;;;;;4.43;2.10;;;;;;;;;;5084131;28;20052;-72
2023/09/16 10:50:18;;;;;;;3.35;1.90;;;;;;;;;;5082617;28;20044;-72
2023/09/16 10:53:02;;;;;;;5.75;2.10;;;;;;;;;;5082884;28;20079;-72
2023/09/16 10:55:36;;;;;;;3.13;1.98;;;;;;;;;;5082306;28;20416;-73
2023/09/16 10:58:16;;;;;;;5.35;2.20;;;;;;;;;;5082860;28;20044;-72
2023/09/16 11:00:56;;;;;;;5.65;2.50;;;;;;;;;;5082258;28;20052;-72
2023/09/16 11:03:31;;;;;;;7.00;2.22;;;;;;;;;;5082596;28;20059;-73
2023/09/16 11:06:02;;;;;;;5.82;2.53;;;;;;;;;;5082858;28;20048;-73
2023/09/16 11:08:33;;;;;;;3.92;2.05;;;;;;;;;;5082356;28;20056;-74
2023/09/16 11:11:05;;;;;;;9.27;2.00;;;;;;;;;;5081771;28;20044;-73
2023/09/16 11:13:36;;;;;;;3.47;1.90;;;;;;;;;;5082684;28;20059;-73
2023/09/16 11:16:13;;;;;;;3.22;2.08;;;;;;;;;;5081543;28;20048;-73
2023/09/16 11:18:49;;;;;;;3.13;1.60;;;;;;;;;;5082797;28;20044;-73
2023/09/16 11:21:21;;;;;;;7.03;1.80;;;;;;;;;;5082435;28;21247;-74
2023/09/16 11:23:52;;;;;;;2.75;1.58;;;;;;;;;;5082349;28;20059;-73
2023/09/16 11:26:23;;;;;;;5.35;1.80;;;;;;;;;;5082387;28;20047;-74
2023/09/16 11:28:54;;;;;;;3.47;2.00;;;;;;;;;;5082575;28;20047;-75
2023/09/16 11:31:26;;;;;;;4.25;2.00;;;;;;;;;;5083001;28;20044;-73
2023/09/16 11:34:00;;;;;;;3.78;2.10;;;;;;;;;;5081612;28;20048;-73
2023/09/16 11:36:36;;;;;;;5.65;2.05;;;;;;;;;;5081952;28;20048;-75
2023/09/16 11:39:09;;;;;;;4.28;1.73;;;;;;;;;;5082190;28;20172;-73
2023/09/16 11:41:40;;;;;;;3.55;1.95;;;;;;;;;;5081948;28;20051;-75
2023/09/16 11:44:11;;;;;;;4.45;2.42;;;;;;;;;;5082022;28;20411;-74
2023/09/16 11:46:42;;;;;;;3.58;1.92;;;;;;;;;;5081114;28;20040;-73
2023/09/16 11:49:16;;;;;;;7.78;2.33;;;;;;;;;;5080076;28;20048;-73
2023/09/16 11:51:51;;;;;;;3.83;2.00;;;;;;;;;;5082024;28;20044;-74
2023/09/16 11:54:22;;;;;;;5.88;2.50;;;;;;;;;;5082621;28;20052;-75
2023/09/16 11:56:54;;;;;;;3.95;2.38;;;;;;;;;;5081652;28;20047;-73
2023/09/16 11:59:27;;;;;;;5.60;2.40;;;;;;;;;;5081746;28;20047;-73
2023/09/16 12:01:59;;;;;;;6.18;2.53;;;;;;;;;;5081204;28;20530;-74
2023/09/16 12:04:34;;;;;;;5.78;4.07;;;;;;;;;;5079622;28;20052;-73
2023/09/16 12:07:05;;;;;;;7.88;2.80;;;;;;;;;;5082445;28;20052;-74
2023/09/16 12:09:38;;;;;;;7.47;2.05;;;;;;;;;;5081429;28;20043;-73
2023/09/16 12:12:09;;;;;;;2.30;1.70;;;;;;;;;;5080792;28;20407;-74
2023/09/16 12:14:42;;;;;;;5.82;2.33;;;;;;;;;;5082204;28;20055;-74
2023/09/16 12:17:13;;;;;;;7.25;2.03;;;;;;;;;;5081368;28;20052;-73
2023/09/16 12:19:55;;;;;;;5.35;2.17;;;;;;;;;;5081270;28;20051;-73
2023/09/16 12:22:26;;;;;;;4.57;2.30;;;;;;;;;;5081520;28;20406;-73
2023/09/16 12:24:56;;;;;;;4.32;2.15;;;;;;;;;;5081166;28;20060;-74
2023/09/16 12:27:27;;;;;;;4.18;2.50;;;;;;;;;;5082186;28;20055;-74
2023/09/16 12:29:58;;;;;;;3.72;2.22;;;;;;;;;;5081528;28;20071;-75
2023/09/16 12:32:29;;;;;;;8.80;2.50;;;;;;;;;;5081056;28;20419;-73
2023/09/16 12:35:06;;;;;;;4.65;2.03;;;;;;;;;;5081124;28;20075;-75
2023/09/16 12:37:39;;;;;;;5.78;2.00;;;;;;;;;;5081155;28;20063;-74
2023/09/16 12:40:10;;;;;;;7.07;2.42;;;;;;;;;;5080423;28;20390;-75
2023/09/16 12:42:42;;;;;;;13.60;2.65;;;;;;;;;;5080855;28;20410;-74
2023/09/16 12:45:12;;;;;;;5.53;2.45;;;;;;;;;;5081770;28;20047;-73
2023/09/16 12:47:43;;;;;;;5.13;2.30;;;;;;;;;;5081675;28;20507;-74
2023/09/16 12:50:15;;;;;;;2.58;2.00;;;;;;;;;;5079789;28;20063;-73
2023/09/16 12:52:45;;;;;;;3.30;2.17;;;;;;;;;;5080983;28;20503;-73
2023/09/16 12:55:16;;;;;;;6.25;2.10;;;;;;;;;;5080224;28;20534;-74
2023/09/16 12:57:48;;;;;;;9.55;2.67;;;;;;;;;;5082841;28;20063;-74
2023/09/16 13:00:23;;;;;;;3.65;2.42;;;;;;;;;;5085059;28;20507;-73
2023/09/16 13:02:57;;;;;;;3.65;2.00;;;;;;;;;;5084908;28;20064;-73
2023/09/16 13:05:29;;;;;;;3.92;1.90;;;;;;;;;;5084626;28;20059;-74
2023/09/16 13:08:01;;;;;;;5.40;2.28;;;;;;;;;;5083512;28;20048;-74
2023/09/16 13:10:33;;;;;;;12.63;2.47;;;;;;;;;;5082988;28;20533;-73
2023/09/16 13:13:04;;;;;;;3.55;2.00;;;;;;;;;;5085093;28;20430;-73
2023/09/16 13:15:36;;;;;;;3.95;2.10;;;;;;;;;;5084962;28;20047;-74
2023/09/16 13:18:08;;;;;;;4.15;2.28;;;;;;;;;;5083832;28;20521;-73
2023/09/16 13:20:42;;;;;;;9.95;4.65;;;;;;;;;;5085439;28;20051;-74
2023/09/16 13:23:24;;;;;;;8.85;5.47;;;;;;;;;;5084971;28;20044;-75
2023/09/16 13:26:07;;;;;;;9.23;2.00;;;;;;;;;;5084498;28;20490;-74
2023/09/16 13:28:38;;;;;;;5.07;2.20;;;;;;;;;;5084055;28;20052;-74
2023/09/16 13:31:09;;;;;;;2.85;2.10;;;;;;;;;;5085134;28;20048;-74
2023/09/16 13:33:43;;;;;;;5.00;1.98;;;;;;;;;;5081969;28;20525;-73
2023/09/16 13:36:14;;;;;;;2.38;1.85;;;;;;;;;;5084418;28;20051;-74
2023/09/16 13:38:46;;;;;;;4.43;1.70;;;;;;;;;;5084317;28;20368;-74
2023/09/16 13:41:17;;;;;;;8.35;2.15;;;;;;;;;;5083878;28;20048;-73
2023/09/16 13:43:48;;;;;;;4.47;2.42;;;;;;;;;;5084943;28;20421;-77
2023/09/16 13:46:19;;;;;;;8.10;2.45;;;;;;;;;;5084178;28;20054;-75
2023/09/16 13:48:50;;;;;;;4.45;2.15;;;;;;;;;;5084915;28;20790;-74
2023/09/16 13:51:22;;;;;;;3.70;1.95;;;;;;;;;;5084003;28;20052;-76
2023/09/16 13:53:52;;;;;;;3.75;1.80;;;;;;;;;;5083812;28;21206;-75
2023/09/16 13:56:26;;;;;;;3.13;1.73;;;;;;;;;;5084106;28;20521;-74
2023/09/16 13:58:57;;;;;;;7.07;2.72;;;;;;;;;;5083712;28;20071;-74
2023/09/16 14:01:27;;;;;;;5.05;1.50;;;;;;;;;;5083633;28;20048;-78
2023/09/16 14:04:01;;;;;;;5.10;2.05;;;;;;;;;;5082704;28;20479;-74
2023/09/16 14:06:32;;;;;;;5.60;1.75;;;;;;;;;;5083745;28;20040;-73
2023/09/16 14:09:03;;;;;;;1.83;1.60;;;;;;;;;;5082814;28;20384;-79
2023/09/16 14:11:33;;;;;;;6.18;1.65;;;;;;;;;;5084085;28;20059;-74
2023/09/16 14:14:03;;;;;;;7.53;1.88;;;;;;;;;;5083351;28;20044;-74
2023/09/16 14:16:34;;;;;;;5.60;1.98;;;;;;;;;;5083214;28;20044;-75
2023/09/16 14:19:05;;;;;;;3.40;1.67;;;;;;;;;;5083315;28;20052;-76
2023/09/16 14:21:36;;;;;;;2.40;1.50;;;;;;;;;;5083837;28;20043;-74
2023/09/16 14:24:06;;;;;;;2.58;1.63;;;;;;;;;;5083643;28;20518;-75
2023/09/16 14:26:37;;;;;;;4.55;1.70;;;;;;;;;;5083435;28;20062;-74
2023/09/16 14:29:09;;;;;;;3.20;1.60;;;;;;;;;;5082909;28;20048;-78
2023/09/16 14:31:41;;;;;;;2.67;1.70;;;;;;;;;;5082712;28;20675;-77
2023/09/16 14:34:12;;;;;;;3.35;1.63;;;;;;;;;;5084207;28;20079;-75
2023/09/16 14:36:43;;;;;;;2.50;1.48;;;;;;;;;;5083232;28;20043;-74
2023/09/16 14:39:13;;;;;;;2.10;1.33;;;;;;;;;;5083920;28;20043;-75
2023/09/16 14:41:47;;;;;;;4.88;1.63;;;;;;;;;;5082818;28;20051;-74
2023/09/16 14:44:18;;;;;;;4.05;1.77;;;;;;;;;;5082767;28;20136;-74
2023/09/16 14:46:48;;;;;;;3.10;1.92;;;;;;;;;;5082636;28;20047;-73
2023/09/16 14:49:19;;;;;;;10.10;2.90;;;;;;;;;;5080191;28;20051;-74
2023/09/16 14:51:54;;;;;;;3.22;1.48;;;;;;;;;;5082508;28;20055;-75
2023/09/16 14:54:27;;;;;;;2.47;1.58;;;;;;;;;;5083233;28;20043;-74
2023/09/16 14:56:57;;;;;;;3.38;1.80;;;;;;;;;;5082820;28;20055;-75
2023/09/16 14:59:31;;;;;;;7.65;2.10;;;;;;;;;;5082518;28;20047;-76
2023/09/16 15:02:03;;;;;;;2.90;1.50;;;;;;;;;;5082332;28;20691;-75
2023/09/16 15:04:35;;;;;;;2.75;1.50;;;;;;;;;;5082765;28;20044;-75
2023/09/16 15:07:05;;;;;;;2.47;1.38;;;;;;;;;;5083213;28;20039;-74
2023/09/16 15:09:36;;;;;;;4.07;1.70;;;;;;;;;;5082988;28;20055;-74
2023/09/16 15:12:08;;;;;;;1.77;1.30;;;;;;;;;;5082866;28;20115;-74